Time;durP1;ratioP1;P1;durP2;ratioP2;P2;SDS_P1;SDS_P2;PMS_P1;PMS_P2;Temp;Humidity;BMP_temperature;BMP_pressure;BME280_temperature;BME280_humidity;BME280_pressure;Samples;Min_cycle;Max_cycle;Signal;HPM_P1;HPM_P2
2022/03/19 00:01:24;;;;;;;48.75;27.77;;;4.80;99.90;;;;;;4908251;29;19923;-60
2022/03/19 00:03:51;;;;;;;44.25;26.95;;;4.80;99.90;;;;;;4906172;29;20571;-60
2022/03/19 00:06:18;;;;;;;43.17;25.83;;;4.80;99.90;;;;;;4890445;29;20054;-60
2022/03/19 00:08:45;;;;;;;48.30;27.35;;;4.80;99.90;;;;;;4906805;28;20047;-60
2022/03/19 00:11:12;;;;;;;47.47;27.35;;;4.70;99.90;;;;;;4907300;28;20043;-60
2022/03/19 00:13:39;;;;;;;;;;;4.70;99.90;;;;;;4908751;29;20198;-60
2022/03/19 00:16:06;;;;;;;48.55;28.42;;;4.70;99.90;;;;;;4904465;28;20108;-60
2022/03/19 00:18:33;;;;;;;48.78;29.67;;;4.70;99.90;;;;;;4906269;28;20032;-59
2022/03/19 00:21:00;;;;;;;51.55;29.20;;;4.60;99.90;;;;;;4905814;29;20066;-59
2022/03/19 00:23:27;;;;;;;51.10;30.35;;;4.50;99.90;;;;;;4906632;28;20066;-59
2022/03/19 00:25:54;;;;;;;52.97;31.88;;;4.50;99.90;;;;;;4908105;29;20762;-60
2022/03/19 00:28:20;;;;;;;61.45;33.35;;;4.50;99.90;;;;;;4906938;29;20035;-60
2022/03/19 00:30:47;;;;;;;;;;;4.40;99.90;;;;;;4907924;28;20046;-60
2022/03/19 00:33:16;;;;;;;49.92;32.28;;;4.30;99.90;;;;;;4906542;29;20151;-61
2022/03/19 00:35:43;;;;;;;;;;;4.20;99.90;;;;;;4907951;29;20047;-60
2022/03/19 00:38:10;;;;;;;60.25;33.55;;;4.20;99.90;;;;;;4906376;29;19937;-60
2022/03/19 00:40:37;;;;;;;54.28;34.42;;;4.10;99.90;;;;;;4906779;28;20579;-60
2022/03/19 00:43:04;;;;;;;52.17;33.58;;;4.00;99.90;;;;;;4906166;29;20039;-60
2022/03/19 00:45:31;;;;;;;57.80;35.78;;;3.90;99.90;;;;;;4890406;29;20575;-60
2022/03/19 00:47:58;;;;;;;54.03;32.13;;;3.90;99.90;;;;;;4906593;29;20050;-60
2022/03/19 00:50:25;;;;;;;57.97;35.13;;;3.80;99.90;;;;;;4906714;29;20047;-60
2022/03/19 00:52:51;;;;;;;58.25;33.78;;;3.80;99.90;;;;;;4904096;29;20047;-60
2022/03/19 00:55:18;;;;;;;54.60;33.40;;;3.80;99.90;;;;;;4907290;29;20150;-60
2022/03/19 00:57:46;;;;;;;;;;;3.70;99.90;;;;;;4907238;29;20110;-60
2022/03/19 01:00:15;;;;;;;59.10;33.65;;;3.70;99.90;;;;;;4889455;29;19927;-60
2022/03/19 01:02:44;;;;;;;58.70;34.85;;;3.60;99.90;;;;;;4889915;29;20616;-60
2022/03/19 01:05:12;;;;;;;60.40;35.50;;;3.60;99.90;;;;;;4906359;29;20262;-60
2022/03/19 01:07:51;;;;;;;65.22;32.80;;;3.60;99.90;;;;;;4906839;29;20047;-59
2022/03/19 01:10:24;;;;;;;49.65;32.30;;;3.60;99.90;;;;;;4889156;29;20055;-59
2022/03/19 01:12:53;;;;;;;53.67;32.38;;;3.50;99.90;;;;;;4906828;29;20047;-60
2022/03/19 01:15:21;;;;;;;56.15;32.10;;;3.50;99.90;;;;;;4907080;29;20047;-60
2022/03/19 01:17:48;;;;;;;53.55;31.45;;;3.50;99.90;;;;;;4905841;29;20375;-60
2022/03/19 01:20:16;;;;;;;53.58;32.70;;;3.50;99.90;;;;;;4906501;28;20039;-59
2022/03/19 01:22:44;;;;;;;58.63;34.78;;;3.50;99.90;;;;;;4906814;28;20058;-59
2022/03/19 01:25:12;;;;;;;60.67;35.55;;;3.40;99.90;;;;;;4906451;29;20054;-60
2022/03/19 01:27:41;;;;;;;54.60;31.70;;;3.40;99.90;;;;;;4888764;29;20051;-61
2022/03/19 01:30:11;;;;;;;52.92;33.35;;;3.40;99.90;;;;;;4906037;28;20142;-60
2022/03/19 01:32:39;;;;;;;47.83;31.08;;;3.40;99.90;;;;;;4903824;28;20202;-60
2022/03/19 01:35:07;;;;;;;51.50;31.98;;;3.40;99.90;;;;;;4904590;29;20381;-61
2022/03/19 01:37:34;;;;;;;48.65;29.40;;;3.40;99.90;;;;;;4906897;29;20051;-60
2022/03/19 01:40:02;;;;;;;56.45;33.85;;;3.30;99.90;;;;;;4905735;28;20043;-60
2022/03/19 01:42:31;;;;;;;56.90;32.85;;;3.30;99.90;;;;;;4904490;29;20931;-60
2022/03/19 01:44:59;;;;;;;56.55;34.15;;;3.30;99.90;;;;;;4871943;29;20339;-61
2022/03/19 01:47:28;;;;;;;54.60;35.00;;;3.30;99.90;;;;;;4905245;29;20043;-60
2022/03/19 01:49:56;;;;;;;51.85;33.63;;;3.30;99.90;;;;;;4887503;29;20389;-60
2022/03/19 01:52:23;;;;;;;53.25;30.90;;;3.30;99.90;;;;;;4905044;29;20050;-60
2022/03/19 01:54:51;;;;;;;58.33;33.88;;;3.30;99.90;;;;;;4906231;29;20198;-59
2022/03/19 01:57:21;;;;;;;53.50;33.42;;;3.30;99.90;;;;;;4906489;29;20035;-59
2022/03/19 01:59:48;;;;;;;62.75;33.72;;;3.30;99.90;;;;;;4886832;29;20043;-60
2022/03/19 02:02:15;;;;;;;53.40;32.40;;;3.30;99.90;;;;;;4905667;29;20051;-60
2022/03/19 02:04:42;;;;;;;52.83;32.65;;;3.40;99.90;;;;;;4903363;29;20640;-61
2022/03/19 02:07:11;;;;;;;53.97;30.85;;;3.40;99.90;;;;;;4903857;29;20135;-60
2022/03/19 02:09:38;;;;;;;53.83;28.83;;;3.40;99.90;;;;;;4905202;28;20047;-60
2022/03/19 02:12:06;;;;;;;46.20;26.75;;;3.40;99.90;;;;;;4906065;29;20289;-60
2022/03/19 02:14:38;;;;;;;48.88;27.77;;;3.40;99.90;;;;;;4906545;29;20047;-60
2022/03/19 02:17:06;;;;;;;54.58;30.77;;;3.50;99.90;;;;;;4905899;29;20210;-60
2022/03/19 02:19:34;;;;;;;44.55;28.23;;;3.50;99.90;;;;;;4904879;28;20986;-59
2022/03/19 02:22:01;;;;;;;54.28;31.92;;;3.60;99.90;;;;;;4905852;29;20043;-59
2022/03/19 02:27:13;;;;;;;52.58;30.77;;;3.60;99.90;;;;;;4904804;29;20047;-61
2022/03/19 02:29:40;;;;;;;53.67;28.60;;;3.70;99.90;;;;;;4902902;28;20069;-60
2022/03/19 02:32:07;;;;;;;;;;;3.70;99.90;;;;;;4905098;28;20058;-59
2022/03/19 02:34:34;;;;;;;43.53;26.88;;;3.70;99.90;;;;;;4906039;28;19985;-60
2022/03/19 02:37:01;;;;;;;49.38;28.30;;;3.70;99.90;;;;;;4903533;29;20595;-60
2022/03/19 02:39:33;;;;;;;43.17;27.50;;;3.70;99.90;;;;;;4906046;28;20050;-59
2022/03/19 02:42:03;;;;;;;49.53;29.75;;;3.70;99.90;;;;;;4909061;29;20042;-60
2022/03/19 02:44:31;;;;;;;59.47;30.58;;;3.70;99.90;;;;;;4908688;29;20826;-60
2022/03/19 02:47:00;;;;;;;63.60;33.25;;;3.70;99.90;;;;;;4908694;29;20054;-60
2022/03/19 02:49:27;;;;;;;56.80;29.80;;;3.60;99.90;;;;;;4908578;29;20544;-60
2022/03/19 02:51:54;;;;;;;;;;;3.50;99.90;;;;;;4908966;29;20058;-59
2022/03/19 02:54:28;;;;;;;54.28;32.95;;;3.50;99.90;;;;;;4893373;29;20439;-59
2022/03/19 02:56:58;;;;;;;54.08;31.75;;;3.40;99.90;;;;;;4909174;29;20047;-60
2022/03/19 02:59:29;;;;;;;59.58;32.95;;;3.40;99.90;;;;;;4909554;28;20051;-59
2022/03/19 03:02:07;;;;;;;46.65;28.38;;;3.40;99.90;;;;;;4908210;29;20047;-60
2022/03/19 03:04:35;;;;;;;53.92;31.70;;;3.40;99.90;;;;;;4909793;29;20071;-60
2022/03/19 03:07:04;;;;;;;55.03;31.00;;;3.40;99.90;;;;;;4908724;29;20375;-59
2022/03/19 03:09:33;;;;;;;51.17;32.08;;;3.40;99.90;;;;;;4908264;28;20422;-59
2022/03/19 03:12:01;;;;;;;47.13;28.70;;;3.30;99.90;;;;;;4908102;29;20055;-60
2022/03/19 03:14:29;;;;;;;51.05;30.30;;;3.30;99.90;;;;;;4908627;29;20070;-59
2022/03/19 03:16:58;;;;;;;48.08;28.95;;;3.20;99.90;;;;;;4908599;28;20043;-59
2022/03/19 03:19:25;;;;;;;49.97;30.88;;;3.20;99.90;;;;;;4905098;28;20043;-59
2022/03/19 03:21:52;;;;;;;50.58;30.38;;;3.20;99.90;;;;;;4909260;28;20047;-60
2022/03/19 03:24:19;;;;;;;;;;;3.10;99.90;;;;;;4908988;28;20047;-60
2022/03/19 03:26:46;;;;;;;54.65;30.70;;;3.10;99.90;;;;;;4909592;29;19934;-59
2022/03/19 03:29:14;;;;;;;;;;;3.10;99.90;;;;;;4909236;28;20047;-60
2022/03/19 03:31:41;;;;;;;55.75;30.75;;;3.00;99.90;;;;;;4908630;29;19926;-59
2022/03/19 03:34:08;;;;;;;55.78;32.30;;;3.00;99.90;;;;;;4908010;28;20915;-60
2022/03/19 03:36:36;;;;;;;54.00;31.30;;;3.00;99.90;;;;;;4908489;29;20054;-60
2022/03/19 03:39:03;;;;;;;48.25;29.25;;;2.90;99.90;;;;;;4907874;28;20043;-60
2022/03/19 03:41:30;;;;;;;48.90;28.60;;;2.90;99.90;;;;;;4908672;29;20039;-60
2022/03/19 03:43:57;;;;;;;52.85;29.77;;;2.90;99.90;;;;;;4890424;29;20181;-61
2022/03/19 03:46:24;;;;;;;53.92;31.77;;;2.80;99.90;;;;;;4908648;29;20142;-60
2022/03/19 03:48:51;;;;;;;49.30;27.48;;;2.80;99.90;;;;;;4906906;29;20047;-60
2022/03/19 03:51:18;;;;;;;47.42;28.67;;;2.80;99.90;;;;;;4906025;28;20880;-60
2022/03/19 03:53:45;;;;;;;51.90;32.17;;;2.70;99.90;;;;;;4906030;29;20466;-60
2022/03/19 03:56:13;;;;;;;56.33;31.15;;;2.70;99.90;;;;;;4908567;29;20060;-60
2022/03/19 03:58:41;;;;;;;52.83;31.35;;;2.60;99.90;;;;;;4900204;29;20046;-60
2022/03/19 04:01:09;;;;;;;54.85;31.45;;;2.60;99.90;;;;;;4900650;29;20187;-60
2022/03/19 04:03:36;;;;;;;49.10;30.25;;;2.60;99.90;;;;;;4914783;28;20047;-60
2022/03/19 04:06:03;;;;;;;;;;;2.50;99.90;;;;;;4919027;28;20078;-60
2022/03/19 04:08:30;;;;;;;63.90;35.53;;;2.50;99.90;;;;;;4905197;29;19926;-60
2022/03/19 04:10:57;;;;;;;;;;;2.50;99.90;;;;;;4908304;29;20469;-61
2022/03/19 04:13:23;;;;;;;55.50;32.30;;;2.50;99.90;;;;;;4908128;29;19929;-60
2022/03/19 04:15:50;;;;;;;;;;;2.40;99.90;;;;;;4906644;29;20793;-60
2022/03/19 04:18:17;;;;;;;57.28;32.15;;;2.40;99.90;;;;;;4909119;28;20239;-60
2022/03/19 04:20:44;;;;;;;;;;;2.40;99.90;;;;;;4907818;28;20043;-59
2022/03/19 04:23:11;;;;;;;48.97;29.67;;;2.40;99.90;;;;;;4907360;29;19973;-59
2022/03/19 04:25:38;;;;;;;50.10;28.33;;;2.40;99.90;;;;;;4906953;29;20142;-59
2022/03/19 04:28:05;;;;;;;49.33;30.65;;;2.40;99.90;;;;;;4906401;28;20048;-60
2022/03/19 04:30:31;;;;;;;;;;;2.30;99.90;;;;;;4904555;29;20838;-61
2022/03/19 04:33:04;;;;;;;55.00;30.58;;;2.30;99.90;;;;;;4908284;29;19926;-61
2022/03/19 04:38:19;;;;;;;50.78;30.58;;;2.30;99.90;;;;;;4906216;29;20548;-60
2022/03/19 04:40:48;;;;;;;51.78;30.52;;;2.30;99.90;;;;;;4906792;28;20318;-60
2022/03/19 04:43:15;;;;;;;49.72;29.25;;;2.30;99.90;;;;;;4907341;29;20056;-60
2022/03/19 04:45:42;;;;;;;51.75;30.25;;;2.30;99.90;;;;;;4890528;29;20051;-61
2022/03/19 04:48:10;;;;;;;51.65;32.53;;;2.30;99.90;;;;;;4904748;29;20427;-60
2022/03/19 04:50:42;;;;;;;65.35;33.15;;;2.30;99.90;;;;;;4906267;29;20122;-60
2022/03/19 04:53:10;;;;;;;52.92;32.03;;;2.30;99.90;;;;;;4903677;29;20052;-61
2022/03/19 04:55:39;;;;;;;54.55;31.55;;;2.30;99.90;;;;;;4908021;28;20043;-60
2022/03/19 04:58:07;;;;;;;48.70;29.65;;;2.30;99.90;;;;;;4907090;29;20047;-61
2022/03/19 05:00:35;;;;;;;55.13;32.22;;;2.20;99.90;;;;;;4903320;28;20047;-60
2022/03/19 05:03:05;;;;;;;49.15;29.23;;;2.20;99.90;;;;;;4888377;29;20206;-60
2022/03/19 05:05:32;;;;;;;49.65;30.95;;;2.10;99.90;;;;;;4905061;29;20583;-60
2022/03/19 05:07:59;;;;;;;58.58;33.80;;;2.10;99.90;;;;;;4905562;29;20035;-60
2022/03/19 05:13:12;;;;;;;57.65;33.35;;;2.00;99.90;;;;;;4904681;29;20054;-60
2022/03/19 05:15:39;;;;;;;59.97;33.05;;;1.90;99.90;;;;;;4907373;29;20576;-60
2022/03/19 05:18:06;;;;;;;55.75;32.28;;;1.90;99.90;;;;;;4908264;29;20035;-60
2022/03/19 05:20:34;;;;;;;57.70;35.08;;;1.80;99.90;;;;;;4905411;28;20039;-61
2022/03/19 05:23:02;;;;;;;55.85;33.97;;;1.80;99.90;;;;;;4890163;29;20334;-61
2022/03/19 05:25:29;;;;;;;58.28;34.20;;;1.70;99.90;;;;;;4889826;29;20039;-60
2022/03/19 05:27:56;;;;;;;60.15;33.65;;;1.70;99.90;;;;;;4904941;29;20043;-60
2022/03/19 05:30:23;;;;;;;;;;;1.70;99.90;;;;;;4908751;28;20054;-60
2022/03/19 05:32:50;;;;;;;60.92;31.48;;;1.70;99.90;;;;;;4922684;28;20109;-60
2022/03/19 05:35:18;;;;;;;52.35;30.90;;;1.60;99.90;;;;;;4907262;28;20584;-60
2022/03/19 05:37:49;;;;;;;57.13;33.05;;;1.60;99.90;;;;;;4906581;29;20409;-60
2022/03/19 05:40:16;;;;;;;66.43;35.97;;;1.60;99.90;;;;;;4906921;28;20047;-60
2022/03/19 05:42:44;;;;;;;59.03;34.47;;;1.60;99.90;;;;;;4903604;28;20049;-61
2022/03/19 05:45:13;;;;;;;56.80;33.13;;;1.60;99.90;;;;;;4903880;29;20925;-55
2022/03/19 05:47:40;;;;;;;66.82;35.95;;;1.60;99.90;;;;;;4888612;29;20845;-55
2022/03/19 05:50:07;;;;;;;63.30;36.97;;;1.60;99.90;;;;;;4920786;28;20055;-55
2022/03/19 05:52:34;;;;;;;53.25;32.65;;;1.60;99.90;;;;;;4904735;29;20043;-55
2022/03/19 05:55:02;;;;;;;54.08;32.83;;;1.60;99.90;;;;;;4887124;29;20057;-55
2022/03/19 05:57:29;;;;;;;57.85;33.60;;;1.60;99.90;;;;;;4885568;29;20058;-55
2022/03/19 05:59:56;;;;;;;65.75;35.85;;;1.60;99.90;;;;;;4885816;29;20073;-56
2022/03/19 06:02:24;;;;;;;57.53;32.70;;;1.70;99.90;;;;;;4887775;29;20047;-55
2022/03/19 06:04:52;;;;;;;60.05;33.78;;;1.70;99.90;;;;;;4905464;29;20849;-54
2022/03/19 06:07:20;;;;;;;48.92;30.98;;;1.80;99.90;;;;;;4905463;28;20720;-55
2022/03/19 06:09:47;;;;;;;55.95;31.33;;;1.80;99.90;;;;;;4905359;28;20914;-55
2022/03/19 06:12:14;;;;;;;51.67;31.08;;;1.90;99.90;;;;;;4903698;29;20043;-56
2022/03/19 06:14:41;;;;;;;58.95;33.65;;;2.00;99.90;;;;;;4903703;29;20226;-55
2022/03/19 06:17:07;;;;;;;;;;;2.10;99.90;;;;;;4905246;29;20066;-55
2022/03/19 06:19:34;;;;;;;56.13;33.35;;;2.10;99.90;;;;;;4904639;28;19938;-54
2022/03/19 06:22:01;;;;;;;57.67;31.80;;;2.20;99.90;;;;;;4886500;28;20185;-52
2022/03/19 06:24:28;;;;;;;61.50;34.45;;;2.30;99.90;;;;;;4902834;29;20159;-53
2022/03/19 06:26:55;;;;;;;;;;;2.30;99.90;;;;;;4904630;29;20123;-51
2022/03/19 06:29:22;;;;;;;55.17;34.45;;;2.40;99.90;;;;;;4901698;28;19926;-53
2022/03/19 06:31:49;;;;;;;58.00;32.75;;;2.50;99.90;;;;;;4902758;29;20583;-53
2022/03/19 06:34:17;;;;;;;55.83;33.42;;;2.50;99.90;;;;;;4885657;29;20763;-53
2022/03/19 06:39:30;;;;;;;65.97;35.20;;;2.80;99.90;;;;;;4889185;29;20057;-53
2022/03/19 06:41:57;;;;;;;59.10;34.10;;;3.00;99.90;;;;;;4886938;29;20047;-51
2022/03/19 06:44:24;;;;;;;58.38;33.58;;;3.30;99.90;;;;;;4885002;29;20267;-52
2022/03/19 06:46:51;;;;;;;56.35;34.63;;;3.50;99.90;;;;;;4903104;29;20549;-53
2022/03/19 06:49:17;;;;;;;58.55;33.58;;;3.80;99.90;;;;;;4900660;28;20173;-53
2022/03/19 06:51:44;;;;;;;57.90;35.40;;;4.10;99.90;;;;;;4915633;28;20822;-53
2022/03/19 06:54:11;;;;;;;57.08;33.42;;;4.40;99.90;;;;;;4901522;29;20508;-52
2022/03/19 06:56:38;;;;;;;;;;;4.60;99.90;;;;;;4904359;28;20098;-52
2022/03/19 06:59:05;;;;;;;57.17;31.13;;;4.90;99.90;;;;;;4902501;28;20864;-56
2022/03/19 07:01:36;;;;;;;54.83;33.67;;;5.20;99.90;;;;;;4905040;29;20035;-56
2022/03/19 07:04:04;;;;;;;55.17;33.40;;;5.40;99.90;;;;;;4886992;29;20047;-54
2022/03/19 07:06:31;;;;;;;59.17;33.85;;;5.50;99.90;;;;;;4901951;29;20043;-55
2022/03/19 07:09:18;;;;;;;53.28;32.17;;;5.60;99.90;;;;;;4900097;28;20043;-54
2022/03/19 07:11:44;;;;;;;53.80;32.83;;;5.70;99.90;;;;;;4904252;29;20838;-55
2022/03/19 07:14:11;;;;;;;55.13;33.05;;;5.70;99.90;;;;;;4903412;29;20150;-55
2022/03/19 07:16:39;;;;;;;52.70;33.40;;;5.80;99.90;;;;;;4901680;28;20071;-55
2022/03/19 07:19:06;;;;;;;56.58;35.15;;;5.90;99.90;;;;;;4901721;28;20035;-56
2022/03/19 07:21:33;;;;;;;62.97;34.92;;;6.00;99.90;;;;;;4903727;29;20084;-56
2022/03/19 07:24:00;;;;;;;70.57;37.70;;;6.00;99.90;;;;;;4902066;29;20077;-56
2022/03/19 07:26:27;;;;;;;62.00;37.58;;;6.00;99.90;;;;;;4904744;28;20046;-55
2022/03/19 07:28:54;;;;;;;67.05;38.35;;;6.00;99.90;;;;;;4904723;28;20051;-54
2022/03/19 07:31:21;;;;;;;;;;;6.10;99.90;;;;;;4906096;29;20054;-53
2022/03/19 07:33:50;;;;;;;66.63;38.58;;;6.30;99.90;;;;;;4906703;29;19922;-53
2022/03/19 07:36:19;;;;;;;65.43;39.17;;;6.50;99.90;;;;;;4906627;29;20146;-54
2022/03/19 07:38:46;;;;;;;70.45;37.70;;;6.70;99.90;;;;;;4905474;28;20054;-55
2022/03/19 07:43:59;;;;;;;74.45;39.75;;;7.10;99.90;;;;;;4907263;28;20050;-58
2022/03/19 07:46:27;;;;;;;58.70;38.92;;;7.50;99.90;;;;;;4906885;29;20039;-58
2022/03/19 07:48:55;;;;;;;66.03;36.80;;;7.70;99.90;;;;;;4888208;28;20441;-58
2022/03/19 07:51:22;;;;;;;54.65;34.38;;;8.00;99.90;;;;;;4902696;29;20047;-58
2022/03/19 07:53:49;;;;;;;58.78;35.97;;;8.30;99.90;;;;;;4906282;29;20043;-57
2022/03/19 07:56:16;;;;;;;73.90;36.75;;;8.40;99.90;;;;;;4888782;29;20397;-58
2022/03/19 07:58:45;;;;;;;;;;;8.70;99.90;;;;;;4904723;28;20047;-57
2022/03/19 08:01:12;;;;;;;72.40;34.92;;;8.80;99.90;;;;;;4907204;29;19926;-56
2022/03/19 08:03:39;;;;;;;88.93;37.45;;;9.00;99.90;;;;;;4906790;29;20066;-56
2022/03/19 08:06:06;;;;;;;;;;;9.30;99.90;;;;;;4888070;29;20863;-56
2022/03/19 08:08:34;;;;;;;53.83;33.28;;;9.40;99.90;;;;;;4907083;29;19922;-56
2022/03/19 08:11:01;;;;;;;56.83;35.20;;;9.60;99.50;;;;;;4906409;29;20053;-57
2022/03/19 08:13:29;;;;;;;54.85;33.80;;;9.80;97.20;;;;;;4890216;29;20043;-55
2022/03/19 08:15:56;;;;;;;50.65;32.60;;;9.90;96.10;;;;;;4906980;29;20082;-56
2022/03/19 08:18:24;;;;;;;51.13;32.42;;;10.10;95.30;;;;;;4889910;29;20458;-57
2022/03/19 08:20:51;;;;;;;50.50;33.35;;;10.30;93.30;;;;;;4906515;28;20122;-56
2022/03/19 08:23:20;;;;;;;52.78;33.75;;;10.50;92.80;;;;;;4905731;29;20531;-56
2022/03/19 08:25:47;;;;;;;55.28;32.60;;;10.60;91.60;;;;;;4906493;29;20324;-56
2022/03/19 08:28:14;;;;;;;56.95;33.22;;;10.80;91.20;;;;;;4906585;29;20043;-56
2022/03/19 08:30:41;;;;;;;;;;;11.00;90.20;;;;;;4908641;28;20842;-55
2022/03/19 08:33:08;;;;;;;53.47;34.43;;;11.10;89.40;;;;;;4909155;29;20148;-56
2022/03/19 08:35:35;;;;;;;54.55;34.83;;;11.20;86.30;;;;;;4905934;28;20054;-55
2022/03/19 08:40:47;;;;;;;56.08;33.03;;;11.10;85.70;;;;;;4902376;29;20731;-56
2022/03/19 08:43:15;;;;;;;;;;;11.20;86.00;;;;;;4904790;29;20054;-55
2022/03/19 08:45:42;;;;;;;56.00;32.53;;;11.20;88.40;;;;;;4887998;29;19927;-56
2022/03/19 08:48:09;;;;;;;49.40;32.63;;;11.30;82.90;;;;;;4902749;29;20039;-56
2022/03/19 08:50:36;;;;;;;51.60;33.78;;;11.40;81.70;;;;;;4869872;29;20054;-56
2022/03/19 08:53:04;;;;;;;53.88;33.83;;;11.50;83.20;;;;;;4905310;28;20051;-56
2022/03/19 08:55:31;;;;;;;;;;;11.60;80.70;;;;;;4905538;29;20050;-56
2022/03/19 08:57:59;;;;;;;54.28;32.60;;;11.80;81.40;;;;;;4901977;29;20696;-56
2022/03/19 09:00:26;;;;;;;51.42;32.45;;;12.00;79.10;;;;;;4904054;28;20525;-58
2022/03/19 09:02:55;;;;;;;50.95;31.73;;;12.00;79.30;;;;;;4903044;29;20041;-58
2022/03/19 09:05:23;;;;;;;49.03;32.08;;;12.20;79.00;;;;;;4904749;29;20058;-66
2022/03/19 09:07:50;;;;;;;52.03;34.42;;;12.40;79.20;;;;;;4903382;29;20807;-55
2022/03/19 09:10:17;;;;;;;52.47;32.40;;;12.60;79.00;;;;;;4902522;28;20043;-58
2022/03/19 09:12:44;;;;;;;;;;;12.70;75.10;;;;;;4904005;29;20044;-56
2022/03/19 09:15:12;;;;;;;47.53;32.57;;;12.80;73.30;;;;;;4902829;29;20427;-56
2022/03/19 09:17:40;;;;;;;52.08;33.70;;;12.90;74.20;;;;;;4903338;29;20806;-55
2022/03/19 09:20:10;;;;;;;47.33;32.72;;;13.00;72.10;;;;;;4900784;28;20728;-54
2022/03/19 09:22:37;;;;;;;51.25;34.30;;;13.00;72.70;;;;;;4885834;29;20241;-56
2022/03/19 09:25:05;;;;;;;48.22;32.00;;;13.00;72.70;;;;;;4886995;29;20068;-56
2022/03/19 09:27:32;;;;;;;49.40;33.25;;;13.10;72.30;;;;;;4904827;29;20383;-55
2022/03/19 09:29:59;;;;;;;53.40;33.28;;;12.90;70.80;;;;;;4905720;28;20047;-55
2022/03/19 09:32:26;;;;;;;52.63;29.33;;;12.80;71.80;;;;;;4904875;29;20051;-56
2022/03/19 09:34:53;;;;;;;;;;;12.80;71.60;;;;;;4904938;29;20249;-56
2022/03/19 09:37:20;;;;;;;49.17;32.33;;;12.80;70.60;;;;;;4902707;29;19922;-56
2022/03/19 09:39:49;;;;;;;56.58;33.20;;;12.90;71.20;;;;;;4904153;28;20122;-56
2022/03/19 09:42:16;;;;;;;51.92;33.85;;;13.10;72.10;;;;;;4902094;29;20496;-55
2022/03/19 09:44:43;;;;;;;47.50;32.17;;;13.30;72.50;;;;;;4887269;29;20639;-55
2022/03/19 09:47:12;;;;;;;49.42;33.05;;;13.30;69.30;;;;;;4888511;29;20038;-48
2022/03/19 09:49:39;;;;;;;51.92;33.00;;;13.30;70.70;;;;;;4902245;28;20058;-49
2022/03/19 09:52:05;;;;;;;;;;;13.50;71.10;;;;;;4906120;29;20109;-52
2022/03/19 09:54:33;;;;;;;51.13;32.47;;;13.70;70.70;;;;;;4901737;29;19923;-52
2022/03/19 09:57:00;;;;;;;52.25;34.13;;;13.90;70.10;;;;;;4905665;29;20058;-52
2022/03/19 09:59:27;;;;;;;51.63;33.35;;;13.90;70.00;;;;;;4902066;29;20123;-52
2022/03/19 10:01:55;;;;;;;47.35;33.35;;;13.80;66.10;;;;;;4905450;29;20218;-59
2022/03/19 10:04:22;;;;;;;46.70;32.40;;;13.70;67.60;;;;;;4905610;29;20282;-56
2022/03/19 10:09:45;;;;;;;47.28;33.45;;;13.80;69.40;;;;;;4905221;28;20044;-55
2022/03/19 10:12:17;;;;;;;51.70;33.10;;;14.00;67.90;;;;;;4900782;28;20051;-54
2022/03/19 10:14:50;;;;;;;52.55;32.88;;;14.00;68.40;;;;;;4883069;29;20395;-55
2022/03/19 10:17:35;;;;;;;51.50;33.40;;;14.20;67.50;;;;;;4899586;29;20043;-55
2022/03/19 10:20:07;;;;;;;51.17;34.15;;;14.40;64.90;;;;;;4898315;28;20244;-56
2022/03/19 10:22:34;;;;;;;52.60;35.40;;;14.50;64.70;;;;;;4901633;29;20655;-55
2022/03/19 10:25:10;;;;;;;51.90;36.20;;;14.60;63.80;;;;;;4899516;29;20966;-55
2022/03/19 10:27:40;;;;;;;55.10;35.78;;;14.80;63.70;;;;;;4899775;29;20474;-57
2022/03/19 10:30:22;;;;;;;57.85;35.78;;;15.00;62.70;;;;;;4903051;28;20054;-56
2022/03/19 10:32:51;;;;;;;55.63;37.25;;;15.10;62.70;;;;;;4903450;29;20039;-55
2022/03/19 10:35:35;;;;;;;51.75;35.70;;;15.10;60.50;;;;;;4903848;29;20058;-56
2022/03/19 10:38:19;;;;;;;54.40;37.53;;;15.00;63.30;;;;;;4902916;29;20051;-55
2022/03/19 10:40:48;;;;;;;53.40;35.03;;;14.90;61.10;;;;;;4895790;29;20043;-55
2022/03/19 10:43:20;;;;;;;49.67;34.80;;;15.00;60.30;;;;;;4886918;29;20250;-56
2022/03/19 10:45:50;;;;;;;46.22;34.47;;;15.10;61.10;;;;;;4903661;29;20037;-56
2022/03/19 10:48:25;;;;;;;46.83;31.38;;;15.30;59.50;;;;;;4885902;29;20376;-56
2022/03/19 10:50:53;;;;;;;50.90;32.17;;;15.50;59.70;;;;;;4902174;28;20043;-56
2022/03/19 10:53:22;;;;;;;48.40;33.85;;;15.70;59.80;;;;;;4885642;29;20058;-57
2022/03/19 10:55:49;;;;;;;52.88;35.72;;;15.80;59.60;;;;;;4901509;29;20576;-56
2022/03/19 10:58:16;;;;;;;48.92;33.50;;;15.90;58.30;;;;;;4903365;29;20039;-56
2022/03/19 11:01:03;;;;;;;49.03;34.77;;;15.80;58.20;;;;;;4905380;28;20596;-56
2022/03/19 11:03:36;;;;;;;49.10;34.40;;;15.70;57.90;;;;;;4906331;29;20046;-57
2022/03/19 11:06:07;;;;;;;46.15;32.72;;;15.80;57.80;;;;;;4889427;29;20182;-56
2022/03/19 11:08:43;;;;;;;48.90;33.38;;;15.80;56.70;;;;;;4906209;29;20190;-57
2022/03/19 11:11:15;;;;;;;42.95;33.78;;;15.80;57.90;;;;;;4904784;29;20498;-57
2022/03/19 11:13:54;;;;;;;45.63;32.30;;;15.70;57.20;;;;;;4907238;29;20345;-58
2022/03/19 11:16:22;;;;;;;44.97;32.20;;;15.60;57.50;;;;;;4891234;29;20051;-56
2022/03/19 11:18:52;;;;;;;46.35;31.45;;;15.30;56.50;;;;;;4887958;28;20113;-56
2022/03/19 11:21:20;;;;;;;44.60;32.25;;;15.10;55.90;;;;;;4907163;29;20055;-55
2022/03/19 11:24:00;;;;;;;47.13;33.65;;;15.20;59.20;;;;;;4907141;29;20770;-56
2022/03/19 11:26:29;;;;;;;54.70;34.08;;;15.30;58.40;;;;;;4907546;29;20142;-56
2022/03/19 11:28:57;;;;;;;46.15;33.72;;;15.20;56.40;;;;;;4905880;28;20075;-55
2022/03/19 11:31:29;;;;;;;50.20;34.58;;;15.10;57.60;;;;;;4907308;29;20167;-56
2022/03/19 11:34:01;;;;;;;46.15;32.08;;;15.00;56.50;;;;;;4906157;29;20191;-55
2022/03/19 11:36:28;;;;;;;46.95;33.03;;;15.20;57.50;;;;;;4891095;29;20039;-56
2022/03/19 11:38:56;;;;;;;46.15;32.67;;;15.30;55.70;;;;;;4905071;28;20051;-56
2022/03/19 11:41:26;;;;;;;52.45;35.47;;;15.40;56.70;;;;;;4906346;29;20051;-56
2022/03/19 11:44:29;;;;;;;51.22;34.00;;;15.60;56.40;;;;;;4904270;29;20154;-56
2022/03/19 11:47:09;;;;;;;47.67;33.05;;;15.50;56.20;;;;;;4846976;29;20051;-56
2022/03/19 11:50:18;;;;;;;49.72;33.38;;;15.40;56.80;;;;;;4899438;29;20572;-55
2022/03/19 11:52:48;;;;;;;50.30;33.47;;;15.40;56.10;;;;;;4903944;29;20150;-55
2022/03/19 11:55:24;;;;;;;47.03;31.80;;;15.50;54.80;;;;;;4887497;29;20071;-54
2022/03/19 11:57:58;;;;;;;45.70;31.83;;;15.40;54.20;;;;;;4904340;28;20142;-56
2022/03/19 12:00:28;;;;;;;45.10;32.25;;;15.40;54.40;;;;;;4906015;28;20043;-55
2022/03/19 12:03:04;;;;;;;47.47;33.42;;;15.40;54.40;;;;;;4889480;29;20783;-56
2022/03/19 12:05:33;;;;;;;49.83;35.17;;;15.50;55.80;;;;;;4907128;29;20035;-55
2022/03/19 12:08:11;;;;;;;52.72;33.47;;;15.50;53.90;;;;;;4904791;29;21098;-55
2022/03/19 12:11:03;;;;;;;46.92;33.60;;;15.60;53.80;;;;;;4886112;29;20688;-54
2022/03/19 12:13:30;;;;;;;49.28;35.25;;;15.70;53.20;;;;;;4893128;29;20127;-55
2022/03/19 12:16:02;;;;;;;;;;;15.70;52.90;;;;;;4905214;29;20042;-58
2022/03/19 12:18:39;;;;;;;46.33;32.42;;;15.60;54.20;;;;;;4903945;28;20700;-56
2022/03/19 12:21:09;;;;;;;48.95;34.15;;;15.40;53.00;;;;;;4887261;29;20563;-59
2022/03/19 12:24:06;;;;;;;50.50;34.47;;;15.30;53.30;;;;;;4906121;29;20478;-56
2022/03/19 12:26:38;;;;;;;51.10;35.55;;;15.30;53.50;;;;;;4905351;29;20059;-55
2022/03/19 12:29:10;;;;;;;48.95;34.65;;;15.10;54.80;;;;;;4904535;28;20035;-55
2022/03/19 12:31:46;;;;;;;55.58;35.85;;;15.20;54.50;;;;;;4903126;29;20209;-55
2022/03/19 12:34:25;;;;;;;55.15;37.25;;;15.20;53.30;;;;;;4904820;29;20620;-55
2022/03/19 12:37:01;;;;;;;51.50;36.47;;;15.10;53.40;;;;;;4903535;29;20793;-55
2022/03/19 12:39:29;;;;;;;45.72;33.20;;;15.10;53.10;;;;;;4885711;29;20085;-55
2022/03/19 12:41:57;;;;;;;53.67;35.03;;;15.20;54.20;;;;;;4905173;28;20818;-55
2022/03/19 12:44:36;;;;;;;48.80;33.05;;;15.30;50.90;;;;;;4905631;29;20373;-56
2022/03/19 12:47:06;;;;;;;45.00;32.78;;;15.40;52.00;;;;;;4903343;29;20090;-55
2022/03/19 12:49:34;;;;;;;50.45;34.72;;;15.50;51.30;;;;;;4887480;29;20541;-55
2022/03/19 12:52:08;;;;;;;48.15;34.20;;;15.60;51.60;;;;;;4904413;29;20043;-55
2022/03/19 12:54:35;;;;;;;52.38;33.65;;;15.60;51.40;;;;;;4887564;29;20246;-56
2022/03/19 12:57:14;;;;;;;50.10;34.90;;;15.70;49.30;;;;;;4887846;29;20122;-56
2022/03/19 12:59:52;;;;;;;45.85;32.50;;;15.70;50.30;;;;;;4902777;28;20051;-56
2022/03/19 13:02:19;;;;;;;46.22;32.80;;;15.60;50.60;;;;;;4902451;29;20846;-55
2022/03/19 13:04:47;;;;;;;49.25;33.38;;;15.70;50.10;;;;;;4903909;29;20133;-61
2022/03/19 13:07:17;;;;;;;45.88;31.42;;;15.60;48.90;;;;;;4903383;29;20039;-55
2022/03/19 13:09:45;;;;;;;39.47;29.58;;;15.70;49.10;;;;;;4903640;28;20137;-55